createdAt,value
2019-04-20T00:02:13.853Z,48.54
2019-04-20T00:04:35.787Z,47.98
2019-04-20T00:07:01.980Z,49.41
2019-04-20T00:09:31.847Z,49.51
2019-04-20T00:12:03.842Z,49.12
2019-04-20T00:14:26.280Z,48.43
2019-04-20T00:16:50.550Z,49.55
2019-04-20T00:19:22.659Z,49.29
2019-04-20T00:22:01.531Z,49.75
2019-04-20T00:24:42.679Z,49.79
2019-04-20T00:27:34.112Z,50.31
2019-04-20T00:29:54.503Z,50.49
2019-04-20T00:32:14.614Z,50.71
2019-04-20T00:34:35.616Z,51.24
2019-04-20T00:36:58.659Z,51.67
2019-04-20T00:39:24.118Z,51.56
2019-04-20T00:41:56.229Z,51.68
2019-04-20T00:44:24.357Z,51.47
2019-04-20T00:46:56.910Z,51.89
2019-04-20T00:49:26.855Z,52.14
2019-04-20T00:52:07.475Z,52.17
2019-04-20T00:54:05.817Z,52.41
2019-04-20T00:56:31.266Z,52.53
2019-04-20T00:59:08.333Z,52.13
2019-04-20T01:01:42.250Z,52.19
2019-04-20T01:04:10.626Z,51.09
2019-04-20T01:06:40.832Z,50.52
2019-04-20T01:09:05.489Z,51.88
2019-04-20T01:11:36.825Z,51.41
2019-04-20T01:14:02.874Z,52.03
2019-04-20T01:16:36.313Z,52.22
2019-04-20T01:18:53.108Z,52.26
2019-04-20T01:21:23.573Z,52.98
2019-04-20T01:23:52.657Z,51.53
2019-04-20T01:26:16.378Z,51.08
2019-04-20T01:28:54.219Z,51.95
2019-04-20T01:31:18.452Z,53.55
2019-04-20T01:33:48.425Z,52.82
2019-04-20T01:36:19.587Z,52.77
2019-04-20T01:38:43.571Z,53.66
2019-04-20T01:40:57.135Z,53.11
2019-04-20T01:43:22.764Z,52.74
2019-04-20T01:45:52.289Z,52.92
2019-04-20T01:48:22.934Z,53.30
2019-04-20T01:50:49.942Z,54.31
2019-04-20T01:53:21.459Z,53.63
2019-04-20T01:55:50.716Z,52.61
2019-04-20T01:58:36.434Z,53.72
2019-04-20T02:00:54.789Z,54.25
2019-04-20T02:03:43.072Z,53.89
2019-04-20T02:06:09.993Z,53.99
2019-04-20T02:08:33.010Z,53.89
2019-04-20T02:11:03.622Z,53.63
2019-04-20T02:13:36.228Z,54.41
2019-04-20T02:15:58.925Z,53.99
2019-04-20T02:19:14.435Z,54.73
2019-04-20T02:21:44.997Z,54.61
2019-04-20T02:24:25.909Z,54.72
2019-04-20T02:26:59.883Z,54.78
2019-04-20T02:29:50.945Z,55.53
2019-04-20T02:32:23.245Z,54.81
2019-04-20T02:35:07.197Z,55.51
2019-04-20T02:38:02.993Z,56.11
2019-04-20T02:40:28.108Z,56.22
2019-04-20T02:43:11.933Z,56.13
2019-04-20T02:45:27.688Z,55.50
2019-04-20T02:47:47.245Z,55.76
2019-04-20T02:50:15.151Z,55.75
2019-04-20T02:55:22.839Z,55.45
2019-04-20T02:57:54.810Z,55.36
2019-04-20T03:00:31.055Z,55.01
2019-04-20T03:03:09.016Z,55.46
2019-04-20T03:05:33.129Z,55.70
2019-04-20T03:08:09.992Z,55.64
2019-04-20T03:11:12.919Z,56.13
2019-04-20T03:13:41.945Z,55.98
2019-04-20T03:16:11.375Z,55.64
2019-04-20T03:18:55.798Z,56.19
2019-04-20T03:21:24.740Z,56.96
2019-04-20T03:24:03.991Z,56.48
2019-04-20T03:26:36.732Z,56.85
2019-04-20T03:29:12.834Z,56.64
2019-04-20T03:32:28.254Z,56.42
2019-04-20T03:34:56.659Z,56.92
2019-04-20T03:37:07.394Z,56.38
2019-04-20T03:39:40.533Z,56.49
2019-04-20T03:41:56.675Z,57.23
2019-04-20T03:44:31.206Z,57.15
2019-04-20T03:47:26.668Z,57.18
2019-04-20T03:50:18.612Z,57.53
2019-04-20T03:53:04.455Z,57.65
2019-04-20T03:55:27.162Z,57.20
2019-04-20T03:58:14.251Z,57.08
2019-04-20T04:00:50.404Z,57.42
2019-04-20T04:04:00.318Z,57.41
2019-04-20T04:06:33.298Z,57.61
2019-04-20T04:09:02.738Z,57.94
2019-04-20T04:11:34.858Z,57.65
2019-04-20T04:13:45.982Z,57.92
2019-04-20T04:16:15.072Z,58.82
2019-04-20T04:19:32.856Z,58.39
2019-04-20T04:22:25.087Z,58.13
2019-04-20T04:25:30.051Z,59.04
2019-04-20T04:28:08.983Z,58.45
2019-04-20T04:30:32.994Z,58.93
2019-04-20T04:33:35.390Z,58.28
2019-04-20T04:35:26.788Z,58.71
2019-04-20T04:38:02.758Z,58.52
2019-04-20T04:40:42.479Z,59.09
2019-04-20T04:43:04.279Z,58.58
2019-04-20T04:45:08.103Z,58.83
2019-04-20T04:47:32.633Z,59.36
2019-04-20T04:50:07.537Z,58.54
2019-04-20T04:52:33.095Z,58.43
2019-04-20T04:55:24.908Z,58.51
2019-04-20T04:57:39.521Z,58.31
2019-04-20T05:00:05.698Z,58.38
2019-04-20T05:02:39.327Z,58.37
2019-04-20T05:05:47.317Z,58.08
2019-04-20T05:08:13.102Z,58.27
2019-04-20T05:10:33.006Z,58.18
2019-04-20T05:13:21.930Z,58.51
2019-04-20T05:16:01.347Z,58.18
2019-04-20T05:18:41.567Z,57.90
2019-04-20T05:21:07.425Z,58.29
2019-04-20T05:24:07.275Z,58.40
2019-04-20T05:27:08.782Z,58.12
2019-04-20T05:29:25.457Z,57.12
2019-04-20T05:31:54.357Z,57.33
2019-04-20T05:34:38.997Z,56.24
2019-04-20T05:37:06.529Z,56.58
2019-04-20T05:39:33.905Z,55.73
2019-04-20T05:41:56.246Z,55.12
2019-04-20T05:44:41.717Z,53.48
2019-04-20T05:47:31.562Z,51.68
2019-04-20T05:49:49.729Z,52.46
2019-04-20T05:55:10.210Z,50.88
2019-04-20T05:57:36.245Z,50.30
2019-04-20T06:00:47.777Z,51.28
2019-04-20T06:04:10.227Z,51.43
2019-04-20T06:07:05.648Z,48.83
2019-04-20T06:09:28.531Z,47.51
2019-04-20T06:14:43.187Z,48.37
2019-04-20T06:17:40.059Z,48.79
2019-04-20T06:20:14.892Z,48.88
2019-04-20T06:22:58.531Z,49.13
2019-04-20T06:25:55.934Z,47.67
2019-04-20T06:28:10.797Z,47.54
2019-04-20T06:31:20.279Z,46.81
2019-04-20T06:34:34.382Z,45.54
2019-04-20T06:37:10.162Z,45.20
2019-04-20T06:42:34.390Z,44.76
2019-04-20T06:44:48.155Z,45.13
2019-04-20T06:47:55.603Z,45.35
2019-04-20T06:50:52.728Z,45.76
2019-04-20T06:53:52.570Z,44.84
2019-04-20T06:56:55.663Z,44.61
2019-04-20T06:59:36.287Z,44.08
2019-04-20T07:02:22.173Z,43.02
2019-04-20T07:05:24.810Z,44.21
2019-04-20T07:07:43.250Z,43.41
2019-04-20T07:10:53.177Z,45.25
2019-04-20T07:13:44.465Z,42.85
2019-04-20T07:16:58.587Z,43.29
2019-04-20T07:19:34.922Z,42.88
2019-04-20T07:22:32.127Z,42.27
2019-04-20T07:25:37.400Z,43.07
2019-04-20T07:28:29.170Z,41.44
2019-04-20T07:30:52.056Z,42.45
2019-04-20T07:33:44.613Z,42.56
2019-04-20T07:36:45.829Z,43.69
2019-04-20T07:39:58.902Z,42.84
2019-04-20T07:42:46.775Z,40.26
2019-04-20T07:45:36.720Z,39.87
2019-04-20T07:48:30.745Z,40.17
2019-04-20T07:51:03.734Z,39.70
2019-04-20T07:53:42.201Z,41.75
2019-04-20T07:56:16.370Z,40.42
2019-04-20T07:58:41.403Z,40.53
2019-04-20T08:02:32.066Z,39.37
2019-04-20T08:05:49.877Z,40.00
2019-04-20T08:08:40.353Z,39.17
2019-04-20T08:11:32.062Z,39.56
2019-04-20T08:14:14.535Z,38.20
2019-04-20T08:17:21.451Z,38.38
2019-04-20T08:19:43.917Z,38.26
2019-04-20T08:22:27.019Z,39.90
2019-04-20T08:24:59.290Z,39.12
2019-04-20T08:27:37.931Z,37.57
2019-04-20T08:31:09.275Z,37.84
2019-04-20T08:33:54.902Z,37.85
2019-04-20T08:36:16.725Z,37.65
2019-04-20T08:39:19.953Z,37.01
2019-04-20T08:41:31.599Z,37.19
2019-04-20T08:44:48.387Z,38.31
2019-04-20T08:47:44.788Z,38.77
2019-04-20T08:50:28.123Z,37.69
2019-04-20T08:53:12.437Z,37.64
2019-04-20T08:55:45.354Z,37.75
2019-04-20T08:58:09.162Z,36.90
2019-04-20T09:00:55.969Z,36.89
2019-04-20T09:03:29.103Z,37.13
2019-04-20T09:06:41.413Z,36.49
2019-04-20T09:10:16.568Z,36.54
2019-04-20T09:12:45.220Z,36.16
2019-04-20T09:15:12.439Z,35.56
2019-04-20T09:18:32.463Z,35.34
2019-04-20T09:21:35.513Z,35.98
2019-04-20T09:24:56.275Z,35.46
2019-04-20T09:27:08.866Z,34.95
2019-04-20T09:30:22.965Z,34.32
2019-04-20T09:33:16.783Z,34.08
2019-04-20T09:35:48.662Z,34.92
2019-04-20T09:38:15.538Z,33.84
2019-04-20T09:41:03.599Z,33.45
2019-04-20T09:43:37.042Z,33.30
2019-04-20T09:46:32.858Z,33.38
2019-04-20T09:49:46.075Z,33.55
2019-04-20T09:52:57.091Z,33.14
2019-04-20T09:55:22.113Z,33.32
2019-04-20T09:58:06.845Z,32.96
2019-04-20T10:01:03.187Z,33.18
2019-04-20T10:03:18.809Z,32.42
2019-04-20T10:05:51.652Z,33.20
2019-04-20T10:08:23.805Z,32.88
2019-04-20T10:11:09.926Z,32.21
2019-04-20T10:14:14.446Z,33.45
2019-04-20T10:17:16.159Z,31.98
2019-04-20T10:20:10.835Z,30.65
2019-04-20T10:22:50.912Z,31.60
2019-04-20T10:26:02.589Z,31.65
2019-04-20T10:28:41.424Z,31.98
2019-04-20T10:31:57.198Z,32.08
2019-04-20T10:34:30.628Z,31.39
2019-04-20T10:37:11.598Z,31.17
2019-04-20T10:39:56.639Z,31.79
2019-04-20T10:43:00.966Z,31.33
2019-04-20T10:45:46.728Z,31.15
2019-04-20T10:48:13.149Z,29.97
2019-04-20T10:51:22.238Z,31.14
2019-04-20T10:53:54.101Z,29.35
2019-04-20T10:56:19.669Z,28.86
2019-04-20T10:58:49.646Z,28.20
2019-04-20T11:01:31.648Z,28.08
2019-04-20T11:04:34.395Z,27.67
2019-04-20T11:07:10.344Z,27.74
2019-04-20T11:09:36.635Z,27.29
2019-04-20T11:12:26.299Z,27.13
2019-04-20T11:15:16.772Z,27.12
2019-04-20T11:18:21.643Z,27.09
2019-04-20T11:21:09.387Z,27.24
2019-04-20T11:23:36.235Z,25.00
2019-04-20T11:26:42.282Z,23.30
2019-04-20T11:29:46.429Z,23.11
2019-04-20T11:32:24.113Z,25.04
2019-04-20T11:35:34.486Z,25.38
2019-04-20T11:38:17.255Z,24.27
2019-04-20T11:41:16.265Z,23.52
2019-04-20T11:44:11.592Z,23.55
2019-04-20T11:46:42.903Z,23.40
2019-04-20T11:49:19.616Z,24.12
2019-04-20T11:51:45.633Z,24.90
2019-04-20T11:55:12.629Z,23.54
2019-04-20T11:57:51.261Z,24.36
2019-04-20T12:00:53.226Z,25.69
2019-04-20T12:03:31.097Z,24.09
2019-04-20T12:06:28.935Z,24.39
2019-04-20T12:08:57.004Z,24.58
2019-04-20T12:11:56.209Z,23.84
2019-04-20T12:14:38.799Z,23.67
2019-04-20T12:17:49.476Z,23.82
2019-04-20T12:20:34.584Z,22.97
2019-04-20T12:23:00.258Z,23.32
2019-04-20T12:25:52.348Z,23.44
2019-04-20T12:28:22.623Z,23.14
2019-04-20T12:31:05.284Z,23.01
2019-04-20T12:33:46.397Z,23.91
2019-04-20T12:36:39.519Z,21.44
2019-04-20T12:39:13.224Z,23.94
2019-04-20T12:42:00.526Z,23.37
2019-04-20T12:44:49.992Z,23.61
2019-04-20T12:47:15.593Z,24.96
2019-04-20T12:50:29.847Z,22.34
2019-04-20T12:53:02.340Z,22.12
2019-04-20T12:55:32.611Z,22.25
2019-04-20T12:58:05.404Z,22.08
2019-04-20T13:01:22.865Z,22.22
2019-04-20T13:04:08.961Z,22.21
2019-04-20T13:06:59.584Z,24.23
2019-04-20T13:09:34.629Z,21.85
2019-04-20T13:12:58.477Z,21.42
2019-04-20T13:16:02.611Z,21.72
2019-04-20T13:18:50.907Z,22.15
2019-04-20T13:21:16.799Z,23.16
2019-04-20T13:24:25.471Z,22.93
2019-04-20T13:26:55.402Z,23.15
2019-04-20T13:29:55.877Z,23.22
2019-04-20T13:32:25.688Z,22.52
2019-04-20T13:34:54.660Z,22.13
2019-04-20T13:37:48.298Z,22.77
2019-04-20T13:40:48.205Z,23.45
2019-04-20T13:43:14.451Z,22.85
2019-04-20T13:45:53.100Z,22.12
2019-04-20T13:48:24.808Z,22.43
2019-04-20T13:51:00.168Z,22.37
2019-04-20T13:53:27.559Z,22.48
2019-04-20T13:56:32.271Z,23.13
2019-04-20T13:59:37.748Z,22.47
2019-04-20T14:02:40.946Z,22.37
2019-04-20T14:05:12.862Z,23.73
2019-04-20T14:07:59.654Z,23.47
2019-04-20T14:10:35.079Z,23.50
2019-04-20T14:13:25.702Z,23.40
2019-04-20T14:15:55.430Z,22.65
2019-04-20T14:18:40.964Z,23.24
2019-04-20T14:21:10.136Z,23.10
2019-04-20T14:24:04.189Z,22.92
2019-04-20T14:26:45.715Z,23.48
2019-04-20T14:29:35.365Z,23.02
2019-04-20T14:32:38.953Z,23.58
2019-04-20T14:35:07.180Z,23.17
2019-04-20T14:37:39.957Z,23.21
2019-04-20T14:40:28.331Z,23.22
2019-04-20T14:43:15.134Z,23.68
2019-04-20T14:45:45.018Z,26.77
2019-04-20T14:48:11.929Z,24.32
2019-04-20T14:50:38.020Z,24.12
2019-04-20T14:53:04.978Z,24.00
2019-04-20T14:55:31.470Z,24.02
2019-04-20T14:57:59.547Z,24.55
2019-04-20T15:00:50.996Z,24.37
2019-04-20T15:03:36.718Z,25.03
2019-04-20T15:06:03.369Z,24.15
2019-04-20T15:08:30.388Z,24.93
2019-04-20T15:10:56.681Z,24.60
2019-04-20T15:13:22.964Z,25.00
2019-04-20T15:15:48.821Z,24.24
2019-04-20T15:18:17.671Z,24.21
2019-04-20T15:20:48.115Z,25.08
2019-04-20T15:23:23.631Z,24.40
2019-04-20T15:25:50.627Z,24.62
2019-04-20T15:28:16.556Z,24.89
2019-04-20T15:30:42.572Z,24.30
2019-04-20T15:33:09.202Z,24.47
2019-04-20T15:35:35.068Z,24.54
2019-04-20T15:38:02.930Z,24.38
2019-04-20T15:40:28.982Z,24.24
2019-04-20T15:43:05.929Z,24.63
2019-04-20T15:45:23.284Z,24.20
2019-04-20T15:47:50.095Z,24.53
2019-04-20T15:50:16.067Z,23.90
2019-04-20T15:52:45.614Z,24.81
2019-04-20T15:55:18.590Z,23.68
2019-04-20T15:57:36.706Z,24.08
2019-04-20T16:00:02.698Z,23.97
2019-04-20T16:02:41.137Z,24.08
2019-04-20T16:05:16.552Z,24.18
2019-04-20T16:07:50.172Z,24.00
2019-04-20T16:10:09.691Z,24.20
2019-04-20T16:12:35.340Z,24.10
2019-04-20T16:15:02.002Z,24.30
2019-04-20T16:17:33.676Z,24.24
2019-04-20T16:20:07.986Z,24.63
2019-04-20T16:22:30.858Z,24.42
2019-04-20T16:25:03.591Z,24.55
2019-04-20T16:27:38.816Z,24.67
2019-04-20T16:30:05.783Z,24.72
2019-04-20T16:32:32.410Z,25.28
2019-04-20T16:34:58.303Z,24.74
2019-04-20T16:37:24.551Z,24.67
2019-04-20T16:39:50.433Z,24.79
2019-04-20T16:42:16.531Z,24.54
2019-04-20T16:44:43.093Z,24.92
2019-04-20T16:47:10.183Z,25.15
2019-04-20T16:49:37.063Z,24.85
2019-04-20T16:52:03.043Z,25.36
2019-04-20T16:54:30.112Z,24.99
2019-04-20T16:56:56.860Z,25.20
2019-04-20T16:59:24.739Z,25.01
2019-04-20T17:01:50.911Z,25.41
2019-04-20T17:04:22.028Z,25.29
2019-04-20T17:07:03.720Z,25.43
2019-04-20T17:09:29.636Z,25.68
2019-04-20T17:11:54.995Z,25.41
2019-04-20T17:14:20.892Z,25.55
2019-04-20T17:16:47.623Z,25.71
2019-04-20T17:19:13.413Z,25.76
2019-04-20T17:21:40.151Z,25.58
2019-04-20T17:24:07.210Z,25.72
2019-04-20T17:27:01.245Z,26.58
2019-04-20T17:29:46.177Z,26.38
2019-04-20T17:32:19.160Z,26.55
2019-04-20T17:35:06.001Z,26.51
2019-04-20T17:37:15.048Z,26.66
2019-04-20T17:40:04.241Z,27.11
2019-04-20T17:42:26.487Z,26.77
2019-04-20T17:44:46.977Z,26.85
2019-04-20T17:47:21.429Z,27.31
2019-04-20T17:49:44.929Z,26.77
2019-04-20T17:52:25.168Z,26.37
2019-04-20T17:54:49.475Z,26.62
2019-04-20T17:57:15.282Z,26.49
2019-04-20T17:59:51.167Z,26.94
2019-04-20T18:02:51.033Z,27.02
2019-04-20T18:05:26.983Z,28.10
2019-04-20T18:07:52.306Z,27.76
2019-04-20T18:10:17.499Z,27.48
2019-04-20T18:12:34.426Z,28.02
2019-04-20T18:15:10.329Z,27.96
2019-04-20T18:17:56.104Z,28.20
2019-04-20T18:20:14.921Z,28.03
2019-04-20T18:22:44.160Z,28.21
2019-04-20T18:25:29.909Z,28.65
2019-04-20T18:27:56.522Z,28.42
2019-04-20T18:30:22.797Z,28.68
2019-04-20T18:32:35.935Z,28.50
2019-04-20T18:35:08.424Z,28.86
2019-04-20T18:37:34.452Z,28.74
2019-04-20T18:40:07.121Z,29.19
2019-04-20T18:42:34.385Z,29.08
2019-04-20T18:45:14.945Z,29.21
2019-04-20T18:47:47.667Z,29.20
2019-04-20T18:50:04.469Z,29.35
2019-04-20T18:52:21.940Z,29.81
2019-04-20T18:54:50.586Z,29.68
2019-04-20T18:57:19.632Z,29.57
2019-04-20T18:59:47.867Z,29.56
2019-04-20T19:02:14.993Z,29.41
2019-04-20T19:04:37.682Z,29.26
2019-04-20T19:07:03.727Z,29.70
2019-04-20T19:09:30.898Z,29.41
2019-04-20T19:12:02.207Z,29.69
2019-04-20T19:15:02.402Z,29.74
2019-04-20T19:18:03.018Z,28.97
2019-04-20T19:20:30.744Z,29.27
2019-04-20T19:22:57.887Z,29.33
2019-04-20T19:25:28.176Z,29.72
2019-04-20T19:27:55.645Z,29.70
2019-04-20T19:30:31.177Z,30.15
2019-04-20T19:33:04.821Z,29.95
2019-04-20T19:35:27.448Z,29.87
2019-04-20T19:37:56.194Z,30.02
2019-04-20T19:40:20.956Z,29.89
2019-04-20T19:42:50.428Z,29.23
2019-04-20T19:45:31.694Z,30.16
2019-04-20T19:47:48.027Z,29.87
2019-04-20T19:50:35.608Z,29.66
2019-04-20T19:53:03.626Z,30.07
2019-04-20T19:55:23.692Z,30.41
2019-04-20T19:57:50.786Z,29.87
2019-04-20T20:00:00.570Z,30.03
2019-04-20T20:02:27.600Z,30.02
2019-04-20T20:05:04.101Z,30.16
2019-04-20T20:07:35.404Z,30.27
2019-04-20T20:10:01.489Z,29.93
2019-04-20T20:12:23.350Z,29.91
2019-04-20T20:14:53.169Z,30.35
2019-04-20T20:17:37.459Z,30.20
2019-04-20T20:20:17.355Z,30.48
2019-04-20T20:22:26.755Z,30.36
2019-04-20T20:24:41.460Z,30.68
2019-04-20T20:27:17.376Z,30.40
2019-04-20T20:29:41.443Z,30.44
2019-04-20T20:32:15.594Z,30.48
2019-04-20T20:34:36.111Z,30.61
2019-04-20T20:37:00.460Z,30.52
2019-04-20T20:39:29.576Z,30.77
2019-04-20T20:42:04.846Z,30.62
2019-04-20T20:44:37.291Z,30.83
2019-04-20T20:47:04.791Z,31.04
2019-04-20T20:49:33.248Z,30.57
2019-04-20T20:52:03.726Z,30.46
2019-04-20T20:54:25.809Z,30.36
2019-04-20T20:56:48.763Z,30.41
2019-04-20T20:59:11.592Z,30.39
2019-04-20T21:01:42.133Z,30.44
2019-04-20T21:04:00.597Z,30.69
2019-04-20T21:06:26.649Z,30.67
2019-04-20T21:08:56.046Z,30.67
2019-04-20T21:11:26.237Z,30.57
2019-04-20T21:13:50.505Z,30.69
2019-04-20T21:16:23.325Z,30.64
2019-04-20T21:19:01.023Z,30.79
2019-04-20T21:21:31.454Z,30.96
2019-04-20T21:23:48.080Z,30.44
2019-04-20T21:26:11.532Z,30.52
2019-04-20T21:28:37.947Z,30.79
2019-04-20T21:31:15.996Z,30.57
2019-04-20T21:33:40.111Z,30.20
2019-04-20T21:36:05.103Z,30.09
2019-04-20T21:38:35.897Z,30.21
2019-04-20T21:41:03.473Z,30.08
2019-04-20T21:43:29.771Z,30.26
2019-04-20T21:45:59.509Z,30.29
2019-04-20T21:48:40.529Z,30.02
2019-04-20T21:51:01.531Z,29.56
2019-04-20T21:53:23.142Z,29.71
2019-04-20T21:55:43.829Z,30.14
2019-04-20T21:58:10.314Z,29.78
2019-04-20T22:01:05.048Z,29.68
2019-04-20T22:03:22.523Z,29.37
2019-04-20T22:05:48.563Z,29.64
2019-04-20T22:08:17.476Z,29.81
2019-04-20T22:10:42.922Z,29.67
2019-04-20T22:13:09.961Z,29.73
2019-04-20T22:15:45.938Z,29.75
2019-04-20T22:18:07.950Z,29.79
2019-04-20T22:20:37.229Z,29.59
2019-04-20T22:23:12.125Z,30.09
2019-04-20T22:25:42.632Z,29.73
2019-04-20T22:27:51.737Z,29.91
2019-04-20T22:30:17.833Z,30.56
2019-04-20T22:32:50.655Z,30.04
2019-04-20T22:35:22.657Z,30.39
2019-04-20T22:38:01.148Z,30.18
2019-04-20T22:40:28.029Z,30.46
2019-04-20T22:42:54.634Z,30.48
2019-04-20T22:45:19.191Z,30.74
2019-04-20T22:47:45.927Z,30.08
2019-04-20T22:50:25.305Z,30.08
2019-04-20T22:52:48.642Z,30.33
2019-04-20T22:55:28.302Z,30.47
2019-04-20T22:57:49.745Z,30.47
2019-04-20T23:00:09.918Z,30.04
2019-04-20T23:02:30.214Z,30.15
2019-04-20T23:04:57.163Z,30.55
2019-04-20T23:07:23.150Z,30.21
2019-04-20T23:09:54.403Z,30.37
2019-04-20T23:12:22.583Z,30.64
2019-04-20T23:14:44.762Z,30.80
2019-04-20T23:17:10.481Z,30.54
2019-04-20T23:19:43.873Z,30.46
2019-04-20T23:22:07.032Z,30.78
2019-04-20T23:24:31.098Z,30.58
2019-04-20T23:26:57.389Z,30.65
2019-04-20T23:29:27.249Z,30.62
2019-04-20T23:31:56.886Z,30.91
2019-04-20T23:34:21.448Z,30.95
2019-04-20T23:36:48.488Z,30.86
2019-04-20T23:39:13.065Z,30.96
2019-04-20T23:41:43.154Z,30.89
2019-04-20T23:44:19.013Z,31.19
2019-04-20T23:47:11.487Z,30.98
2019-04-20T23:49:53.982Z,31.29
2019-04-20T23:52:26.907Z,31.20
2019-04-20T23:54:33.666Z,31.71
2019-04-20T23:56:57.725Z,31.51
2019-04-20T23:59:27.687Z,31.37
